createdAt,value
2023-01-03T00:00:09.589Z,98754.15
2023-01-03T00:02:58.780Z,98753.52
2023-01-03T00:05:27.094Z,98751.01
2023-01-03T00:07:55.805Z,98750.48
2023-01-03T00:10:23.884Z,98749.73
2023-01-03T00:12:52.141Z,98754.10
2023-01-03T00:15:20.238Z,98759.45
2023-01-03T00:17:48.531Z,98764.14
2023-01-03T00:20:16.852Z,98764.27
2023-01-03T00:22:45.119Z,98769.23
2023-01-03T00:25:13.863Z,98771.77
2023-01-03T00:27:41.997Z,98768.55
2023-01-03T00:30:10.752Z,98768.89
2023-01-03T00:32:41.742Z,98770.16
2023-01-03T00:35:10.075Z,98770.45
2023-01-03T00:37:38.200Z,98774.60
2023-01-03T00:40:06.776Z,98777.29
2023-01-03T00:42:55.104Z,98775.71
2023-01-03T00:45:25.555Z,98776.95
2023-01-03T00:47:54.436Z,98779.81
2023-01-03T00:50:22.758Z,98776.67
2023-01-03T00:52:50.996Z,98770.95
2023-01-03T00:55:19.126Z,98772.11
2023-01-03T00:57:47.198Z,98774.13
2023-01-03T01:00:15.703Z,98770.95
2023-01-03T01:02:44.214Z,98772.84
2023-01-03T01:05:12.852Z,98772.46
2023-01-03T01:07:40.958Z,98768.46
2023-01-03T01:10:09.392Z,98766.05
2023-01-03T01:12:38.052Z,98766.74
2023-01-03T01:15:07.039Z,98763.50
2023-01-03T01:17:35.339Z,98767.27
2023-01-03T01:20:03.891Z,98765.67
2023-01-03T01:22:33.892Z,98762.22
2023-01-03T01:25:02.483Z,98765.10
2023-01-03T01:27:31.768Z,98761.86
2023-01-03T01:29:59.979Z,98762.08
2023-01-03T01:32:28.253Z,98756.73
2023-01-03T01:34:56.453Z,98756.99
2023-01-03T01:37:24.573Z,98759.34
2023-01-03T01:39:52.743Z,98755.19
2023-01-03T01:42:39.495Z,98751.24
2023-01-03T01:45:14.497Z,98749.36
2023-01-03T01:47:45.739Z,98752.10
2023-01-03T01:50:38.378Z,98755.05
2023-01-03T01:53:20.489Z,98757.07
2023-01-03T01:55:59.523Z,98760.89
2023-01-03T01:58:32.547Z,98762.92
2023-01-03T02:01:00.929Z,98765.33
2023-01-03T02:03:30.869Z,98768.81
2023-01-03T02:06:05.092Z,98763.81
2023-01-03T02:08:33.469Z,98763.78
2023-01-03T02:11:40.068Z,98761.58
2023-01-03T02:14:45.325Z,98763.92
2023-01-03T02:17:34.157Z,98768.64
2023-01-03T02:20:23.853Z,98770.73
2023-01-03T02:23:34.051Z,98773.15
2023-01-03T02:26:37.030Z,98770.44
2023-01-03T02:29:08.256Z,98767.48
2023-01-03T02:32:05.481Z,98764.64
2023-01-03T02:35:04.783Z,98762.38
2023-01-03T02:37:42.863Z,98771.23
2023-01-03T02:40:14.147Z,98773.04
2023-01-03T02:43:05.929Z,98775.61
2023-01-03T02:46:02.835Z,98778.33
2023-01-03T02:48:55.694Z,98776.16
2023-01-03T02:51:28.270Z,98776.69
2023-01-03T02:53:58.682Z,98777.43
2023-01-03T02:56:35.983Z,98778.27
2023-01-03T02:59:12.168Z,98777.58
2023-01-03T03:01:45.596Z,98771.58
2023-01-03T03:04:14.882Z,98772.55
2023-01-03T03:07:03.535Z,98773.02
2023-01-03T03:09:31.881Z,98772.02
2023-01-03T03:12:20.645Z,98769.16
2023-01-03T03:14:54.921Z,98767.55
2023-01-03T03:17:30.639Z,98768.17
2023-01-03T03:20:37.374Z,98771.52
2023-01-03T03:23:29.824Z,98770.84
2023-01-03T03:26:10.116Z,98773.45
2023-01-03T03:28:45.474Z,98777.29
2023-01-03T03:31:14.264Z,98776.60
2023-01-03T03:34:23.223Z,98781.93
2023-01-03T03:37:10.556Z,98786.77
2023-01-03T03:40:05.731Z,98788.39
2023-01-03T03:43:13.731Z,98789.91
2023-01-03T03:45:52.207Z,98790.64
2023-01-03T03:49:08.601Z,98787.34
2023-01-03T03:51:42.484Z,98780.79
2023-01-03T03:54:16.930Z,98777.89
2023-01-03T03:56:50.042Z,98780.74
2023-01-03T03:59:21.878Z,98780.44
2023-01-03T04:01:51.564Z,98781.12
2023-01-03T04:04:35.496Z,98781.00
2023-01-03T04:07:04.617Z,98779.43
2023-01-03T04:09:42.939Z,98781.70
2023-01-03T04:12:11.545Z,98779.77
2023-01-03T04:14:49.802Z,98780.21
2023-01-03T04:17:28.256Z,98776.79
2023-01-03T04:20:13.321Z,98779.31
2023-01-03T04:23:02.438Z,98777.89
2023-01-03T04:26:03.962Z,98780.73
2023-01-03T04:28:53.202Z,98782.59
2023-01-03T04:31:40.931Z,98787.81
2023-01-03T04:34:21.599Z,98791.86
2023-01-03T04:37:00.784Z,98792.81
2023-01-03T04:39:36.572Z,98791.88
2023-01-03T04:42:30.963Z,98791.10
2023-01-03T04:45:13.317Z,98795.39
2023-01-03T04:47:44.032Z,98794.09
2023-01-03T04:50:12.501Z,98792.48
2023-01-03T04:52:40.761Z,98794.20
2023-01-03T04:55:15.253Z,98797.35
2023-01-03T04:57:43.635Z,98800.46
2023-01-03T05:00:12.585Z,98803.81
2023-01-03T05:02:41.045Z,98806.81
2023-01-03T05:05:10.361Z,98809.10
2023-01-03T05:07:38.672Z,98814.13
2023-01-03T05:10:07.590Z,98815.56
2023-01-03T05:12:35.859Z,98816.00
2023-01-03T05:15:04.326Z,98816.46
2023-01-03T05:17:32.513Z,98821.54
2023-01-03T05:20:19.084Z,98821.66
2023-01-03T05:23:05.613Z,98822.73
2023-01-03T05:25:51.895Z,98827.74
2023-01-03T05:28:23.471Z,98822.77
2023-01-03T05:30:52.638Z,98821.46
2023-01-03T05:33:20.813Z,98817.97
2023-01-03T05:35:48.931Z,98820.96
2023-01-03T05:38:17.290Z,98821.08
2023-01-03T05:40:45.811Z,98825.83
2023-01-03T05:43:14.752Z,98828.11
2023-01-03T05:45:43.499Z,98830.44
2023-01-03T05:48:11.676Z,98828.97
2023-01-03T05:50:40.141Z,98829.65
2023-01-03T05:53:10.627Z,98830.80
2023-01-03T05:55:39.731Z,98823.38
2023-01-03T05:58:10.262Z,98821.80
2023-01-03T06:00:38.539Z,98825.61
2023-01-03T06:03:07.790Z,98833.47
2023-01-03T06:05:36.000Z,98831.23
2023-01-03T06:08:04.130Z,98833.48
2023-01-03T06:10:32.259Z,98831.18
2023-01-03T06:13:00.360Z,98830.34
2023-01-03T06:15:28.421Z,98827.66
2023-01-03T06:17:58.123Z,98825.30
2023-01-03T06:20:27.888Z,98831.05
2023-01-03T06:22:56.816Z,98834.17
2023-01-03T06:25:25.616Z,98837.30
2023-01-03T06:27:55.158Z,98841.14
2023-01-03T06:30:23.619Z,98842.52
2023-01-03T06:32:51.766Z,98844.95
2023-01-03T06:35:19.868Z,98841.21
2023-01-03T06:37:47.926Z,98840.80
2023-01-03T06:40:16.009Z,98838.85
2023-01-03T06:42:44.115Z,98840.02
2023-01-03T06:45:33.229Z,98847.08
2023-01-03T06:48:27.956Z,98852.39
2023-01-03T06:51:14.718Z,98857.03
2023-01-03T06:53:43.833Z,98858.36
2023-01-03T06:56:12.178Z,98861.40
2023-01-03T06:58:42.154Z,98861.61
2023-01-03T07:01:12.922Z,98863.94
2023-01-03T07:03:41.247Z,98868.02
2023-01-03T07:06:09.517Z,98870.20
2023-01-03T07:08:41.299Z,98872.88
2023-01-03T07:11:15.449Z,98878.81
2023-01-03T07:13:58.908Z,98882.23
2023-01-03T07:16:32.225Z,98880.44
2023-01-03T07:19:00.588Z,98882.27
2023-01-03T07:21:30.836Z,98883.16
2023-01-03T07:24:05.926Z,98885.15
2023-01-03T07:26:35.589Z,98881.49
2023-01-03T07:29:06.575Z,98881.27
2023-01-03T07:31:35.528Z,98880.39
2023-01-03T07:34:03.799Z,98881.33
2023-01-03T07:36:35.848Z,98882.10
2023-01-03T07:39:22.171Z,98884.00
2023-01-03T07:42:11.079Z,98883.20
2023-01-03T07:44:39.437Z,98879.85
2023-01-03T07:47:07.571Z,98882.46
2023-01-03T07:49:35.911Z,98884.07
2023-01-03T07:52:04.244Z,98884.36
2023-01-03T07:54:32.471Z,98885.70
2023-01-03T07:57:00.505Z,98882.51
2023-01-03T07:59:28.919Z,98880.70
2023-01-03T08:01:57.192Z,98886.02
2023-01-03T08:04:25.470Z,98886.45
2023-01-03T08:06:53.535Z,98886.48
2023-01-03T08:09:40.178Z,98890.11
2023-01-03T08:12:29.317Z,98890.27
2023-01-03T08:14:57.295Z,98884.27
2023-01-03T08:17:25.354Z,98888.66
2023-01-03T08:19:53.452Z,98885.73
2023-01-03T08:22:22.910Z,98885.52
2023-01-03T08:24:59.253Z,98882.42
2023-01-03T08:27:30.032Z,98887.83
2023-01-03T08:29:58.420Z,98888.67
2023-01-03T08:32:26.817Z,98888.46
2023-01-03T08:34:55.275Z,98887.63
2023-01-03T08:37:23.286Z,98887.02
2023-01-03T08:39:59.653Z,98884.80
2023-01-03T08:42:29.991Z,98886.56
2023-01-03T08:45:06.635Z,98886.60
2023-01-03T08:47:35.945Z,98887.13
2023-01-03T08:50:10.971Z,98887.98
2023-01-03T08:53:33.644Z,98886.81
2023-01-03T08:56:29.077Z,98889.17
2023-01-03T08:59:23.476Z,98887.91
2023-01-03T09:01:51.669Z,98881.63
2023-01-03T09:04:19.962Z,98876.83
2023-01-03T09:06:48.015Z,98876.22
2023-01-03T09:09:16.098Z,98876.56
2023-01-03T09:11:44.075Z,98879.77
2023-01-03T09:14:12.105Z,98880.13
2023-01-03T09:16:45.426Z,98878.24
2023-01-03T09:19:17.328Z,98880.98
2023-01-03T09:21:45.372Z,98878.75
2023-01-03T09:24:13.340Z,98875.57
2023-01-03T09:26:41.399Z,98872.70
2023-01-03T09:29:09.439Z,98871.50
2023-01-03T09:31:39.941Z,98864.73
2023-01-03T09:34:08.396Z,98863.90
2023-01-03T09:36:38.628Z,98863.48
2023-01-03T09:39:06.746Z,98859.61
2023-01-03T09:41:35.955Z,98855.20
2023-01-03T09:44:07.926Z,98853.03
2023-01-03T09:46:37.388Z,98855.92
2023-01-03T09:49:07.469Z,98856.01
2023-01-03T09:52:18.562Z,98853.57
2023-01-03T09:55:05.027Z,98851.56
2023-01-03T09:57:54.968Z,98850.73
2023-01-03T10:01:02.965Z,98846.91
2023-01-03T10:04:05.605Z,98842.73
2023-01-03T10:06:33.645Z,98843.06
2023-01-03T10:09:20.037Z,98837.95
2023-01-03T10:11:48.533Z,98834.20
2023-01-03T10:14:19.419Z,98833.13
2023-01-03T10:16:57.883Z,98831.32
2023-01-03T10:19:51.263Z,98831.41
2023-01-03T10:22:25.727Z,98833.95
2023-01-03T10:25:23.838Z,98829.78
2023-01-03T10:28:00.027Z,98830.06
2023-01-03T10:31:35.701Z,98829.00
2023-01-03T10:35:06.911Z,98821.61
2023-01-03T10:37:55.143Z,98820.48
2023-01-03T10:40:42.536Z,98822.45
2023-01-03T10:43:16.738Z,98817.80
2023-01-03T10:46:02.250Z,98818.22
2023-01-03T10:49:17.069Z,98819.00
2023-01-03T10:51:58.984Z,98816.98
2023-01-03T10:54:36.387Z,98814.91
2023-01-03T10:57:06.078Z,98813.09
2023-01-03T10:59:35.012Z,98804.38
2023-01-03T11:02:18.357Z,98799.17
2023-01-03T11:04:46.562Z,98796.99
2023-01-03T11:07:17.053Z,98791.47
2023-01-03T11:09:54.133Z,98791.20
2023-01-03T11:12:33.991Z,98788.13
2023-01-03T11:15:14.081Z,98786.09
2023-01-03T11:17:59.190Z,98782.89
2023-01-03T11:20:46.713Z,98779.00
2023-01-03T11:23:50.270Z,98771.65
2023-01-03T11:26:45.417Z,98775.39
2023-01-03T11:29:24.101Z,98767.92
2023-01-03T11:32:07.569Z,98765.80
2023-01-03T11:35:03.034Z,98765.58
2023-01-03T11:37:35.053Z,98759.89
2023-01-03T11:40:31.073Z,98754.96
2023-01-03T11:43:20.497Z,98753.00
2023-01-03T11:46:07.067Z,98751.45
2023-01-03T11:49:13.015Z,98752.55
2023-01-03T11:52:01.156Z,98753.34
2023-01-03T11:54:38.376Z,98751.58
2023-01-03T11:57:17.715Z,98753.36
2023-01-03T12:00:03.111Z,98755.16
2023-01-03T12:02:54.934Z,98751.04
2023-01-03T12:05:44.888Z,98753.34
2023-01-03T12:08:12.811Z,98753.21
2023-01-03T12:10:49.309Z,98757.90
2023-01-03T12:13:46.879Z,98753.91
2023-01-03T12:16:34.676Z,98748.98
2023-01-03T12:19:54.756Z,98750.75
2023-01-03T12:22:37.565Z,98750.89
2023-01-03T12:25:25.736Z,98752.59
2023-01-03T12:28:19.069Z,98751.35
2023-01-03T12:30:56.902Z,98750.86
2023-01-03T12:33:49.116Z,98748.13
2023-01-03T12:36:43.152Z,98744.65
2023-01-03T12:39:38.967Z,98742.45
2023-01-03T12:42:20.413Z,98738.41
2023-01-03T12:45:00.766Z,98737.50
2023-01-03T12:47:47.449Z,98736.27
2023-01-03T12:50:36.286Z,98734.75
2023-01-03T12:53:24.232Z,98739.17
2023-01-03T12:56:09.365Z,98736.16
2023-01-03T12:58:52.152Z,98735.02
2023-01-03T13:01:21.772Z,98741.40
2023-01-03T13:03:56.731Z,98750.23
2023-01-03T13:06:36.022Z,98750.64
2023-01-03T13:09:33.902Z,98752.79
2023-01-03T13:12:13.865Z,98753.47
2023-01-03T13:14:55.602Z,98755.19
2023-01-03T13:17:29.129Z,98751.33
2023-01-03T13:20:33.430Z,98748.90
2023-01-03T13:23:21.873Z,98753.35
2023-01-03T13:26:10.402Z,98759.88
2023-01-03T13:28:39.770Z,98758.64
2023-01-03T13:31:21.052Z,98760.13
2023-01-03T13:33:49.170Z,98768.45
2023-01-03T13:36:17.446Z,98770.13
2023-01-03T13:38:46.348Z,98773.23
2023-01-03T13:41:41.828Z,98774.21
2023-01-03T13:44:30.369Z,98776.70
2023-01-03T13:46:59.530Z,98781.11
2023-01-03T13:49:28.990Z,98782.15
2023-01-03T13:51:58.772Z,98786.64
2023-01-03T13:54:57.654Z,98786.66
2023-01-03T13:57:38.297Z,98791.46
2023-01-03T14:00:23.161Z,98793.83
2023-01-03T14:03:19.420Z,98794.99
2023-01-03T14:06:25.610Z,98795.27
2023-01-03T14:09:16.305Z,98796.33
2023-01-03T14:11:54.055Z,98791.88
2023-01-03T14:14:27.604Z,98790.94
2023-01-03T14:16:58.015Z,98799.99
2023-01-03T14:19:30.700Z,98799.75
2023-01-03T14:22:26.902Z,98800.23
2023-01-03T14:24:56.704Z,98803.70
2023-01-03T14:27:40.897Z,98802.83
2023-01-03T14:30:24.654Z,98802.91
2023-01-03T14:32:53.261Z,98800.58
2023-01-03T14:35:42.035Z,98803.56
2023-01-03T14:38:25.597Z,98802.59
2023-01-03T14:40:56.054Z,98805.88
2023-01-03T14:43:31.897Z,98806.63
2023-01-03T14:46:10.407Z,98805.99
2023-01-03T14:48:38.987Z,98807.41
2023-01-03T14:51:10.199Z,98807.02
2023-01-03T14:53:40.735Z,98810.61
2023-01-03T14:56:10.768Z,98813.68
2023-01-03T14:58:45.238Z,98813.12
2023-01-03T15:01:14.740Z,98812.77
2023-01-03T15:03:46.215Z,98811.45
2023-01-03T15:06:19.332Z,98812.93
2023-01-03T15:08:49.994Z,98819.05
2023-01-03T15:11:59.278Z,98823.91
2023-01-03T15:14:31.045Z,98826.79
2023-01-03T15:17:11.398Z,98827.32
2023-01-03T15:19:46.686Z,98830.23
2023-01-03T15:22:20.721Z,98830.00
2023-01-03T15:24:59.462Z,98830.66
2023-01-03T15:27:43.406Z,98830.89
2023-01-03T15:30:15.502Z,98830.77
2023-01-03T15:32:57.210Z,98831.98
2023-01-03T15:35:28.149Z,98830.28
2023-01-03T15:37:57.358Z,98830.66
2023-01-03T15:40:25.390Z,98834.55
2023-01-03T15:43:12.342Z,98840.29
2023-01-03T15:45:41.614Z,98841.42
2023-01-03T15:48:16.918Z,98840.80
2023-01-03T15:50:51.121Z,98845.33
2023-01-03T15:53:37.966Z,98845.11
2023-01-03T15:56:24.289Z,98846.96
2023-01-03T15:58:56.069Z,98843.23
2023-01-03T16:01:25.732Z,98846.33
2023-01-03T16:03:54.462Z,98846.30
2023-01-03T16:06:22.657Z,98850.90
2023-01-03T16:08:50.720Z,98852.88
2023-01-03T16:11:31.548Z,98854.09
2023-01-03T16:14:05.677Z,98852.90
2023-01-03T16:16:38.515Z,98855.03
2023-01-03T16:19:08.509Z,98853.78
2023-01-03T16:21:36.624Z,98855.66
2023-01-03T16:24:05.010Z,98854.09
2023-01-03T16:26:33.092Z,98852.68
2023-01-03T16:29:01.181Z,98853.94
2023-01-03T16:31:32.480Z,98853.05
2023-01-03T16:34:00.806Z,98853.21
2023-01-03T16:36:38.290Z,98849.72
2023-01-03T16:39:14.228Z,98848.81
2023-01-03T16:41:43.491Z,98849.99
2023-01-03T16:44:11.658Z,98852.34
2023-01-03T16:46:39.972Z,98849.81
2023-01-03T16:49:11.000Z,98851.59
2023-01-03T16:51:48.954Z,98852.16
2023-01-03T16:54:19.736Z,98853.45
2023-01-03T16:56:47.900Z,98849.45
2023-01-03T16:59:18.537Z,98852.17
2023-01-03T17:01:48.069Z,98856.62
2023-01-03T17:04:17.621Z,98860.08
2023-01-03T17:06:45.818Z,98862.41
2023-01-03T17:09:21.178Z,98866.36
2023-01-03T17:11:49.573Z,98864.45
2023-01-03T17:14:22.271Z,98862.26
2023-01-03T17:16:50.780Z,98865.85
2023-01-03T17:20:02.107Z,98864.81
2023-01-03T17:22:17.992Z,98865.85
2023-01-03T17:24:46.555Z,98867.08
2023-01-03T17:27:31.948Z,98867.23
2023-01-03T17:30:04.018Z,98860.52
2023-01-03T17:32:32.241Z,98858.23
2023-01-03T17:35:00.429Z,98855.94
2023-01-03T17:37:28.519Z,98859.05
2023-01-03T17:39:59.747Z,98853.66
2023-01-03T17:42:29.266Z,98853.54
2023-01-03T17:45:15.842Z,98858.06
2023-01-03T17:48:03.254Z,98857.84
2023-01-03T17:50:32.191Z,98859.52
2023-01-03T17:53:02.043Z,98859.83
2023-01-03T17:55:30.858Z,98863.14
2023-01-03T17:58:03.954Z,98870.48
2023-01-03T18:00:32.401Z,98867.62
2023-01-03T18:03:00.997Z,98869.20
2023-01-03T18:05:30.475Z,98869.89
2023-01-03T18:08:01.870Z,98872.70
2023-01-03T18:10:41.783Z,98866.14
2023-01-03T18:13:34.455Z,98869.98
2023-01-03T18:16:03.164Z,98874.18
2023-01-03T18:18:32.694Z,98874.87
2023-01-03T18:21:00.834Z,98876.50
2023-01-03T18:23:31.967Z,98868.08
2023-01-03T18:26:03.304Z,98868.11
2023-01-03T18:28:31.501Z,98870.02
2023-01-03T18:31:00.017Z,98867.32
2023-01-03T18:33:28.097Z,98868.14
2023-01-03T18:35:56.274Z,98867.98
2023-01-03T18:38:28.443Z,98865.98
2023-01-03T18:41:02.580Z,98867.83
2023-01-03T18:43:33.817Z,98868.81
2023-01-03T18:46:01.978Z,98874.45
2023-01-03T18:48:30.171Z,98877.12
2023-01-03T18:50:59.660Z,98879.28
2023-01-03T18:53:32.310Z,98882.31
2023-01-03T18:56:01.126Z,98881.54
2023-01-03T18:58:35.616Z,98883.02
2023-01-03T19:01:05.068Z,98879.52
2023-01-03T19:03:35.048Z,98881.20
2023-01-03T19:06:14.030Z,98879.63
2023-01-03T19:08:51.962Z,98879.90
2023-01-03T19:11:27.636Z,98883.11
2023-01-03T19:14:00.085Z,98885.70
2023-01-03T19:16:38.854Z,98888.01
2023-01-03T19:19:08.085Z,98891.51
2023-01-03T19:21:40.009Z,98893.54
2023-01-03T19:24:39.232Z,98894.15
2023-01-03T19:27:17.860Z,98889.06
2023-01-03T19:29:45.975Z,98889.74
2023-01-03T19:32:21.552Z,98891.75
2023-01-03T19:34:49.852Z,98895.41
2023-01-03T19:37:18.058Z,98897.08
2023-01-03T19:39:46.269Z,98894.97
2023-01-03T19:42:35.873Z,98897.40
2023-01-03T19:45:26.599Z,98894.84
2023-01-03T19:47:56.600Z,98893.09
2023-01-03T19:50:30.678Z,98894.13
2023-01-03T19:53:01.697Z,98899.23
2023-01-03T19:55:32.946Z,98897.88
2023-01-03T19:58:05.949Z,98897.00
2023-01-03T20:00:34.053Z,98891.86
2023-01-03T20:03:05.378Z,98890.09
2023-01-03T20:05:35.593Z,98895.38
2023-01-03T20:08:23.680Z,98897.13
2023-01-03T20:11:00.595Z,98894.76
2023-01-03T20:13:29.002Z,98894.55
2023-01-03T20:16:00.572Z,98896.20
2023-01-03T20:18:36.793Z,98897.34
2023-01-03T20:21:22.121Z,98901.27
2023-01-03T20:23:54.428Z,98900.60
2023-01-03T20:26:24.649Z,98900.41
2023-01-03T20:28:55.633Z,98903.16
2023-01-03T20:31:25.031Z,98899.75
2023-01-03T20:33:54.199Z,98890.66
2023-01-03T20:36:25.811Z,98887.81
2023-01-03T20:38:56.246Z,98885.02
2023-01-03T20:41:36.487Z,98884.20
2023-01-03T20:44:09.587Z,98887.94
2023-01-03T20:46:39.255Z,98887.34
2023-01-03T20:49:16.297Z,98884.15
2023-01-03T20:51:44.781Z,98882.38
2023-01-03T20:54:13.031Z,98883.55
2023-01-03T20:56:41.756Z,98884.38
2023-01-03T20:59:21.424Z,98882.50
2023-01-03T21:01:54.857Z,98880.15
2023-01-03T21:04:23.752Z,98875.20
2023-01-03T21:06:55.694Z,98874.52
2023-01-03T21:09:26.882Z,98874.75
2023-01-03T21:11:59.114Z,98873.41
2023-01-03T21:14:30.312Z,98869.42
2023-01-03T21:16:58.851Z,98869.70
2023-01-03T21:19:27.190Z,98865.74
2023-01-03T21:21:58.412Z,98862.47
2023-01-03T21:24:26.767Z,98861.94
2023-01-03T21:26:55.314Z,98861.30
2023-01-03T21:29:23.802Z,98861.89
2023-01-03T21:31:52.221Z,98861.06
2023-01-03T21:34:21.544Z,98866.04
2023-01-03T21:36:49.886Z,98871.33
2023-01-03T21:39:18.183Z,98879.73
2023-01-03T21:42:04.923Z,98886.44
2023-01-03T21:44:34.187Z,98885.62
2023-01-03T21:47:02.648Z,98884.62
2023-01-03T21:49:31.093Z,98884.96
2023-01-03T21:51:59.378Z,98885.95
2023-01-03T21:54:27.806Z,98883.26
2023-01-03T21:56:55.993Z,98877.67
2023-01-03T21:59:24.259Z,98870.40
2023-01-03T22:02:13.617Z,98867.68
2023-01-03T22:04:41.882Z,98869.98
2023-01-03T22:07:10.159Z,98867.91
2023-01-03T22:09:56.985Z,98865.13
2023-01-03T22:12:25.727Z,98864.18
2023-01-03T22:14:53.924Z,98862.31
2023-01-03T22:17:22.249Z,98866.21
2023-01-03T22:19:51.010Z,98866.27
2023-01-03T22:22:19.187Z,98870.55
2023-01-03T22:24:47.389Z,98872.91
2023-01-03T22:27:16.902Z,98876.52
2023-01-03T22:29:45.019Z,98878.30
2023-01-03T22:32:13.386Z,98880.23
2023-01-03T22:34:41.819Z,98876.04
2023-01-03T22:37:10.687Z,98872.56
2023-01-03T22:39:38.912Z,98872.41
2023-01-03T22:42:08.009Z,98874.51
2023-01-03T22:44:36.363Z,98876.34
2023-01-03T22:47:04.826Z,98877.80
2023-01-03T22:49:33.191Z,98882.19
2023-01-03T22:52:01.757Z,98880.62
2023-01-03T22:54:30.410Z,98877.52
2023-01-03T22:56:58.757Z,98878.72
2023-01-03T22:59:27.173Z,98873.58
2023-01-03T23:01:56.685Z,98875.36
2023-01-03T23:04:26.644Z,98874.83
2023-01-03T23:06:55.720Z,98876.12
2023-01-03T23:09:24.541Z,98874.11
2023-01-03T23:12:11.143Z,98871.78
2023-01-03T23:14:39.576Z,98871.36
2023-01-03T23:17:26.257Z,98869.59
2023-01-03T23:19:54.524Z,98870.50
2023-01-03T23:22:22.787Z,98868.49
2023-01-03T23:24:50.984Z,98867.84
2023-01-03T23:27:19.350Z,98869.20
2023-01-03T23:29:47.698Z,98869.58
2023-01-03T23:32:15.998Z,98867.60
2023-01-03T23:34:44.225Z,98861.45
2023-01-03T23:37:12.545Z,98859.16
2023-01-03T23:39:40.824Z,98856.88
2023-01-03T23:42:09.327Z,98857.41
2023-01-03T23:44:37.563Z,98855.67
2023-01-03T23:47:11.446Z,98856.54
2023-01-03T23:49:41.250Z,98855.39
2023-01-03T23:52:09.579Z,98853.45
2023-01-03T23:54:37.926Z,98850.54
2023-01-03T23:57:06.393Z,98854.02
2023-01-03T23:59:34.723Z,98851.69
